createdAt,value
2023-02-27T00:00:27.124Z,-4.46
2023-02-27T00:01:27.493Z,-4.42
2023-02-27T00:02:27.136Z,-4.46
2023-02-27T00:03:27.121Z,-4.46
2023-02-27T00:04:27.085Z,-4.49
2023-02-27T00:05:27.065Z,-4.53
2023-02-27T00:06:27.045Z,-4.53
2023-02-27T00:07:27.037Z,-4.56
2023-02-27T00:08:27.135Z,-4.53
2023-02-27T00:09:27.012Z,-4.53
2023-02-27T00:10:27.004Z,-4.51
2023-02-27T00:11:27.484Z,-4.49
2023-02-27T00:12:26.975Z,-4.50
2023-02-27T00:13:26.977Z,-4.51
2023-02-27T00:14:26.958Z,-4.50
2023-02-27T00:15:26.945Z,-4.50
2023-02-27T00:16:27.000Z,-4.47
2023-02-27T00:17:26.913Z,-4.46
2023-02-27T00:18:26.911Z,-4.46
2023-02-27T00:19:26.900Z,-4.46
2023-02-27T00:20:26.879Z,-4.46
2023-02-27T00:21:27.294Z,-4.47
2023-02-27T00:22:26.851Z,-4.46
2023-02-27T00:23:26.863Z,-4.47
2023-02-27T00:24:26.820Z,-4.47
2023-02-27T00:25:26.818Z,-4.46
2023-02-27T00:26:26.801Z,-4.47
2023-02-27T00:27:26.795Z,-4.49
2023-02-27T00:28:26.790Z,-4.53
2023-02-27T00:29:26.769Z,-4.57
2023-02-27T00:30:26.799Z,-4.60
2023-02-27T00:31:27.187Z,-4.58
2023-02-27T00:32:26.788Z,-4.56
2023-02-27T00:33:26.734Z,-4.60
2023-02-27T00:34:26.693Z,-4.58
2023-02-27T00:35:26.701Z,-4.61
2023-02-27T00:36:26.673Z,-4.63
2023-02-27T00:37:26.679Z,-4.72
2023-02-27T00:38:26.663Z,-4.77
2023-02-27T00:39:26.642Z,-4.77
2023-02-27T00:40:26.624Z,-4.75
2023-02-27T00:41:26.912Z,-4.71
2023-02-27T00:42:26.599Z,-4.77
2023-02-27T00:43:26.611Z,-4.77
2023-02-27T00:44:26.580Z,-4.79
2023-02-27T00:45:26.559Z,-4.85
2023-02-27T00:46:26.569Z,-4.92
2023-02-27T00:47:26.536Z,-4.93
2023-02-27T00:48:26.565Z,-4.87
2023-02-27T00:49:26.517Z,-4.90
2023-02-27T00:50:26.508Z,-4.87
2023-02-27T00:51:26.812Z,-4.93
2023-02-27T00:52:26.485Z,-4.93
2023-02-27T00:53:26.488Z,-4.95
2023-02-27T00:54:26.465Z,-4.93
2023-02-27T00:55:27.455Z,-4.97
2023-02-27T00:56:26.433Z,-5.00
2023-02-27T00:57:26.445Z,-4.99
2023-02-27T00:58:26.433Z,-5.00
2023-02-27T00:59:26.401Z,-5.00
2023-02-27T01:00:26.395Z,-5.03
2023-02-27T01:01:26.732Z,-5.03
2023-02-27T01:02:26.465Z,-4.99
2023-02-27T01:03:26.355Z,-5.04
2023-02-27T01:04:26.334Z,-5.04
2023-02-27T01:05:26.323Z,-5.03
2023-02-27T01:06:26.324Z,-4.95
2023-02-27T01:07:26.301Z,-4.95
2023-02-27T01:08:26.306Z,-4.93
2023-02-27T01:09:26.285Z,-4.92
2023-02-27T01:10:26.265Z,-4.87
2023-02-27T01:11:26.497Z,-4.85
2023-02-27T01:12:26.243Z,-4.85
2023-02-27T01:13:26.250Z,-4.89
2023-02-27T01:14:26.225Z,-4.87
2023-02-27T01:15:26.205Z,-4.87
2023-02-27T01:16:26.247Z,-4.90
2023-02-27T01:17:26.176Z,-4.90
2023-02-27T01:18:26.193Z,-4.92
2023-02-27T01:19:26.157Z,-4.95
2023-02-27T01:20:26.153Z,-4.92
2023-02-27T01:21:26.456Z,-4.86
2023-02-27T01:22:26.124Z,-4.85
2023-02-27T01:23:26.139Z,-4.86
2023-02-27T01:24:26.105Z,-4.85
2023-02-27T01:25:26.104Z,-4.86
2023-02-27T01:26:26.079Z,-4.87
2023-02-27T01:27:26.060Z,-4.90
2023-02-27T01:28:26.062Z,-4.90
2023-02-27T01:29:26.032Z,-4.96
2023-02-27T01:30:26.088Z,-4.99
2023-02-27T01:31:26.354Z,-5.00
2023-02-27T01:32:26.124Z,-5.03
2023-02-27T01:33:26.056Z,-5.10
2023-02-27T01:34:25.981Z,-5.22
2023-02-27T01:35:25.971Z,-5.25
2023-02-27T01:36:25.967Z,-5.19
2023-02-27T01:37:25.947Z,-5.25
2023-02-27T01:38:25.941Z,-5.22
2023-02-27T01:39:25.918Z,-5.23
2023-02-27T01:40:25.904Z,-5.22
2023-02-27T01:41:26.275Z,-5.25
2023-02-27T01:42:25.900Z,-5.22
2023-02-27T01:43:25.880Z,-5.19
2023-02-27T01:44:25.857Z,-5.17
2023-02-27T01:45:25.836Z,-5.14
2023-02-27T01:46:25.835Z,-5.08
2023-02-27T01:47:25.823Z,-5.03
2023-02-27T01:48:25.816Z,-4.97
2023-02-27T01:49:25.791Z,-4.96
2023-02-27T01:50:25.784Z,-4.96
2023-02-27T01:51:26.116Z,-5.00
2023-02-27T01:52:25.753Z,-5.00
2023-02-27T01:53:25.762Z,-5.06
2023-02-27T01:54:25.734Z,-4.93
2023-02-27T01:55:25.728Z,-4.92
2023-02-27T01:56:25.712Z,-4.89
2023-02-27T01:57:25.699Z,-4.90
2023-02-27T01:58:25.818Z,-4.90
2023-02-27T01:59:25.671Z,-4.93
2023-02-27T02:00:25.663Z,-4.97
2023-02-27T02:01:26.013Z,-5.06
2023-02-27T02:02:25.676Z,-5.08
2023-02-27T02:03:25.655Z,-5.18
2023-02-27T02:04:25.614Z,-5.11
2023-02-27T02:05:25.614Z,-5.14
2023-02-27T02:06:25.588Z,-5.13
2023-02-27T02:07:25.571Z,-5.11
2023-02-27T02:08:25.577Z,-5.06
2023-02-27T02:09:25.550Z,-5.00
2023-02-27T02:10:25.536Z,-4.97
2023-02-27T02:11:25.862Z,-4.96
2023-02-27T02:12:25.520Z,-4.86
2023-02-27T02:13:25.519Z,-4.85
2023-02-27T02:14:25.504Z,-4.86
2023-02-27T02:15:25.485Z,-4.86
2023-02-27T02:16:25.517Z,-4.99
2023-02-27T02:17:25.461Z,-4.97
2023-02-27T02:18:25.455Z,-5.06
2023-02-27T02:19:25.455Z,-5.17
2023-02-27T02:20:25.413Z,-5.29
2023-02-27T02:21:25.792Z,-5.35
2023-02-27T02:22:25.414Z,-5.41
2023-02-27T02:23:25.394Z,-5.43
2023-02-27T02:24:25.372Z,-5.44
2023-02-27T02:25:25.354Z,-5.37
2023-02-27T02:26:25.860Z,-5.36
2023-02-27T02:27:25.312Z,-5.37
2023-02-27T02:28:25.333Z,-5.39
2023-02-27T02:29:25.303Z,-5.36
2023-02-27T02:30:25.309Z,-5.32
2023-02-27T02:31:25.575Z,-5.33
2023-02-27T02:32:25.289Z,-5.32
2023-02-27T02:33:25.266Z,-5.32
2023-02-27T02:34:25.252Z,-5.32
2023-02-27T02:35:25.230Z,-5.32
2023-02-27T02:36:25.227Z,-5.30
2023-02-27T02:37:25.200Z,-5.35
2023-02-27T02:38:25.209Z,-5.36
2023-02-27T02:39:25.180Z,-5.43
2023-02-27T02:40:25.167Z,-5.44
2023-02-27T02:41:25.428Z,-5.46
2023-02-27T02:42:25.146Z,-5.51
2023-02-27T02:43:25.149Z,-5.48
2023-02-27T02:44:25.127Z,-5.55
2023-02-27T02:45:25.109Z,-5.57
2023-02-27T02:46:25.116Z,-5.59
2023-02-27T02:47:25.088Z,-5.62
2023-02-27T02:48:25.096Z,-5.64
2023-02-27T02:49:25.056Z,-5.61
2023-02-27T02:50:25.055Z,-5.57
2023-02-27T02:51:25.470Z,-5.53
2023-02-27T02:52:25.025Z,-5.51
2023-02-27T02:53:26.788Z,-5.51
2023-02-27T02:54:26.025Z,-5.47
2023-02-27T02:55:24.995Z,-5.44
2023-02-27T02:56:24.975Z,-5.46
2023-02-27T02:57:24.964Z,-5.46
2023-02-27T02:58:24.964Z,-5.46
2023-02-27T02:59:24.953Z,-5.46
2023-02-27T03:00:24.930Z,-5.44
2023-02-27T03:01:25.359Z,-5.47
2023-02-27T03:02:24.906Z,-5.46
2023-02-27T03:03:24.893Z,-5.47
2023-02-27T03:04:24.988Z,-5.46
2023-02-27T03:05:24.863Z,-5.46
2023-02-27T03:06:24.864Z,-5.39
2023-02-27T03:07:24.845Z,-5.35
2023-02-27T03:08:24.836Z,-5.35
2023-02-27T03:09:24.839Z,-5.37
2023-02-27T03:10:24.822Z,-5.36
2023-02-27T03:11:25.220Z,-5.37
2023-02-27T03:12:24.792Z,-5.37
2023-02-27T03:13:24.771Z,-5.37
2023-02-27T03:14:24.777Z,-5.35
2023-02-27T03:15:24.751Z,-5.32
2023-02-27T03:16:24.738Z,-5.33
2023-02-27T03:17:24.721Z,-5.37
2023-02-27T03:18:24.734Z,-5.39
2023-02-27T03:19:24.707Z,-5.36
2023-02-27T03:20:24.720Z,-5.29
2023-02-27T03:21:24.796Z,-5.23
2023-02-27T03:22:24.663Z,-5.11
2023-02-27T03:23:24.643Z,-5.03
2023-02-27T03:24:24.666Z,-5.03
2023-02-27T03:25:24.621Z,-5.04
2023-02-27T03:26:24.617Z,-5.07
2023-02-27T03:27:24.611Z,-5.11
2023-02-27T03:28:24.589Z,-5.17
2023-02-27T03:29:24.582Z,-5.17
2023-02-27T03:30:24.569Z,-5.23
2023-02-27T03:31:24.876Z,-5.29
2023-02-27T03:32:24.596Z,-5.33
2023-02-27T03:33:24.530Z,-5.36
2023-02-27T03:34:24.527Z,-5.37
2023-02-27T03:35:24.932Z,-5.39
2023-02-27T03:36:24.526Z,-5.43
2023-02-27T03:37:24.467Z,-5.46
2023-02-27T03:38:24.465Z,-5.44
2023-02-27T03:39:24.464Z,-5.48
2023-02-27T03:40:24.444Z,-5.48
2023-02-27T03:41:24.570Z,-5.54
2023-02-27T03:42:24.414Z,-5.54
2023-02-27T03:43:24.401Z,-5.57
2023-02-27T03:44:24.414Z,-5.55
2023-02-27T03:45:24.380Z,-5.61
2023-02-27T03:46:24.392Z,-5.66
2023-02-27T03:47:24.350Z,-5.72
2023-02-27T03:48:24.341Z,-5.75
2023-02-27T03:49:24.340Z,-5.79
2023-02-27T03:50:24.319Z,-5.82
2023-02-27T03:51:24.519Z,-5.83
2023-02-27T03:52:24.292Z,-5.83
2023-02-27T03:53:24.288Z,-5.82
2023-02-27T03:54:24.300Z,-5.80
2023-02-27T03:55:24.248Z,-5.79
2023-02-27T03:56:24.249Z,-5.75
2023-02-27T03:57:24.252Z,-5.72
2023-02-27T03:58:24.228Z,-5.68
2023-02-27T03:59:24.229Z,-5.68
2023-02-27T04:00:24.198Z,-5.66
2023-02-27T04:01:24.200Z,-5.68
2023-02-27T04:02:24.190Z,-5.69
2023-02-27T04:03:24.157Z,-5.68
2023-02-27T04:04:24.157Z,-5.65
2023-02-27T04:05:24.144Z,-5.62
2023-02-27T04:06:24.134Z,-5.61
2023-02-27T04:07:24.125Z,-5.61
2023-02-27T04:08:24.106Z,-5.61
2023-02-27T04:09:24.095Z,-5.65
2023-02-27T04:10:24.079Z,-5.71
2023-02-27T04:11:24.158Z,-5.76
2023-02-27T04:12:24.058Z,-5.83
2023-02-27T04:13:24.033Z,-5.89
2023-02-27T04:14:24.041Z,-6.01
2023-02-27T04:15:24.026Z,-6.05
2023-02-27T04:16:24.022Z,-6.08
2023-02-27T04:17:23.988Z,-6.13
2023-02-27T04:18:23.980Z,-6.13
2023-02-27T04:19:23.972Z,-6.13
2023-02-27T04:20:23.953Z,-6.15
2023-02-27T04:21:24.134Z,-6.15
2023-02-27T04:22:23.930Z,-6.15
2023-02-27T04:23:23.910Z,-6.15
2023-02-27T04:24:23.919Z,-6.13
2023-02-27T04:25:23.891Z,-6.15
2023-02-27T04:26:23.890Z,-6.15
2023-02-27T04:27:23.872Z,-6.16
2023-02-27T04:28:23.861Z,-6.15
2023-02-27T04:29:23.871Z,-6.13
2023-02-27T04:30:23.845Z,-6.08
2023-02-27T04:31:23.892Z,-6.07
2023-02-27T04:32:23.865Z,-6.03
2023-02-27T04:33:23.806Z,-6.01
2023-02-27T04:34:23.814Z,-5.97
2023-02-27T04:35:23.785Z,-6.01
2023-02-27T04:36:23.769Z,-6.00
2023-02-27T04:37:23.753Z,-5.98
2023-02-27T04:38:23.753Z,-6.00
2023-02-27T04:39:23.742Z,-6.01
2023-02-27T04:40:23.720Z,-6.01
2023-02-27T04:41:23.747Z,-6.00
2023-02-27T04:42:23.701Z,-5.93
2023-02-27T04:43:23.690Z,-5.87
2023-02-27T04:44:23.703Z,-5.72
2023-02-27T04:45:23.713Z,-5.68
2023-02-27T04:46:23.650Z,-5.66
2023-02-27T04:47:23.631Z,-5.69
2023-02-27T04:48:23.621Z,-5.68
2023-02-27T04:49:23.634Z,-5.66
2023-02-27T04:50:23.599Z,-5.66
2023-02-27T04:51:23.581Z,-5.71
2023-02-27T04:52:23.586Z,-5.76
2023-02-27T04:53:23.561Z,-5.79
2023-02-27T04:54:23.572Z,-5.79
2023-02-27T04:55:23.542Z,-5.80
2023-02-27T04:56:23.551Z,-5.84
2023-02-27T04:57:23.517Z,-5.87
2023-02-27T04:58:25.297Z,-5.89
2023-02-27T04:59:23.517Z,-5.83
2023-02-27T05:00:23.479Z,-5.83
2023-02-27T05:01:23.470Z,-5.83
2023-02-27T05:02:23.691Z,-5.84
2023-02-27T05:03:23.446Z,-5.86
2023-02-27T05:04:23.445Z,-5.84
2023-02-27T05:05:23.426Z,-5.84
2023-02-27T05:06:23.412Z,-5.86
2023-02-27T05:07:23.396Z,-5.86
2023-02-27T05:08:23.390Z,-5.86
2023-02-27T05:09:23.390Z,-5.89
2023-02-27T05:10:23.357Z,-5.89
2023-02-27T05:11:23.350Z,-5.94
2023-02-27T05:12:23.332Z,-6.07
2023-02-27T05:13:23.319Z,-6.16
2023-02-27T05:14:23.324Z,-6.22
2023-02-27T05:15:23.292Z,-6.25
2023-02-27T05:16:23.325Z,-6.31
2023-02-27T05:17:23.289Z,-6.36
2023-02-27T05:18:23.305Z,-6.36
2023-02-27T05:19:23.263Z,-6.32
2023-02-27T05:20:23.233Z,-6.26
2023-02-27T05:21:23.219Z,-6.22
2023-02-27T05:22:23.207Z,-6.16
2023-02-27T05:23:23.217Z,-6.16
2023-02-27T05:24:23.197Z,-6.18
2023-02-27T05:25:23.177Z,-6.21
2023-02-27T05:26:23.157Z,-6.22
2023-02-27T05:27:23.147Z,-6.23
2023-02-27T05:28:23.129Z,-6.25
2023-02-27T05:29:23.145Z,-6.23
2023-02-27T05:30:23.113Z,-6.22
2023-02-27T05:31:23.129Z,-6.23
2023-02-27T05:32:23.107Z,-6.22
2023-02-27T05:33:23.074Z,-6.26
2023-02-27T05:34:23.087Z,-6.26
2023-02-27T05:35:23.055Z,-6.25
2023-02-27T05:36:23.043Z,-6.23
2023-02-27T05:37:23.030Z,-6.29
2023-02-27T05:38:23.051Z,-6.31
2023-02-27T05:39:23.015Z,-6.28
2023-02-27T05:40:22.988Z,-6.25
2023-02-27T05:41:22.979Z,-6.23
2023-02-27T05:42:22.971Z,-6.16
2023-02-27T05:43:22.957Z,-6.10
2023-02-27T05:44:22.958Z,-6.05
2023-02-27T05:45:22.928Z,-6.01
2023-02-27T05:46:22.926Z,-5.92
2023-02-27T05:47:22.909Z,-5.89
2023-02-27T05:48:22.885Z,-5.84
2023-02-27T05:49:22.895Z,-5.84
2023-02-27T05:50:22.885Z,-5.90
2023-02-27T05:51:22.858Z,-5.92
2023-02-27T05:52:22.848Z,-5.94
2023-02-27T05:53:22.843Z,-5.98
2023-02-27T05:54:22.848Z,-6.07
2023-02-27T05:55:22.838Z,-6.07
2023-02-27T05:56:22.794Z,-6.05
2023-02-27T05:57:22.790Z,-6.04
2023-02-27T05:58:22.788Z,-6.03
2023-02-27T05:59:22.773Z,-6.05
2023-02-27T06:00:22.775Z,-6.08
2023-02-27T06:01:22.734Z,-6.05
2023-02-27T06:02:22.772Z,-6.05
2023-02-27T06:03:22.758Z,-6.08
2023-02-27T06:04:22.713Z,-6.11
2023-02-27T06:05:22.684Z,-6.13
2023-02-27T06:06:22.676Z,-6.16
2023-02-27T06:07:22.666Z,-6.19
2023-02-27T06:08:22.659Z,-6.23
2023-02-27T06:09:22.644Z,-6.31
2023-02-27T06:10:22.632Z,-6.34
2023-02-27T06:11:22.615Z,-6.36
2023-02-27T06:12:22.596Z,-6.37
2023-02-27T06:13:22.607Z,-6.39
2023-02-27T06:14:22.573Z,-6.40
2023-02-27T06:15:22.584Z,-6.40
2023-02-27T06:16:22.584Z,-6.42
2023-02-27T06:17:22.551Z,-6.39
2023-02-27T06:18:22.529Z,-6.29
2023-02-27T06:19:22.513Z,-6.19
2023-02-27T06:20:22.505Z,-6.07
2023-02-27T06:21:22.504Z,-6.00
2023-02-27T06:22:22.477Z,-5.86
2023-02-27T06:23:22.458Z,-5.74
2023-02-27T06:24:22.457Z,-5.65
2023-02-27T06:25:22.461Z,-5.51
2023-02-27T06:26:22.420Z,-5.41
2023-02-27T06:27:22.428Z,-5.30
2023-02-27T06:28:22.399Z,-5.14
2023-02-27T06:29:22.387Z,-5.06
2023-02-27T06:30:22.398Z,-4.96
2023-02-27T06:31:22.380Z,-4.87
2023-02-27T06:32:22.354Z,-4.78
2023-02-27T06:33:22.353Z,-4.71
2023-02-27T06:34:22.346Z,-4.67
2023-02-27T06:35:22.336Z,-4.61
2023-02-27T06:36:22.294Z,-4.57
2023-02-27T06:37:22.307Z,-4.51
2023-02-27T06:38:22.281Z,-4.46
2023-02-27T06:39:22.276Z,-4.43
2023-02-27T06:40:22.270Z,-4.40
2023-02-27T06:41:22.250Z,-4.38
2023-02-27T06:42:22.232Z,-4.30
2023-02-27T06:43:22.237Z,-4.25
2023-02-27T06:44:22.207Z,-4.18
2023-02-27T06:45:22.208Z,-4.10
2023-02-27T06:46:22.245Z,-4.04
2023-02-27T06:47:22.174Z,-3.93
2023-02-27T06:48:22.146Z,-3.86
2023-02-27T06:49:22.137Z,-3.82
2023-02-27T06:50:22.141Z,-3.75
2023-02-27T06:51:22.136Z,-3.72
2023-02-27T06:52:22.103Z,-3.66
2023-02-27T06:53:22.207Z,-3.63
2023-02-27T06:54:22.073Z,-3.56
2023-02-27T06:55:22.083Z,-3.52
2023-02-27T06:56:22.054Z,-3.46
2023-02-27T06:57:22.043Z,-3.42
2023-02-27T06:58:22.031Z,-3.33
2023-02-27T06:59:22.022Z,-3.30
2023-02-27T07:00:22.013Z,-3.24
2023-02-27T07:01:22.035Z,-3.20
2023-02-27T07:02:21.989Z,-3.10
2023-02-27T07:03:21.969Z,-3.03
2023-02-27T07:04:21.977Z,-3.00
2023-02-27T07:05:22.740Z,-2.96
2023-02-27T07:06:22.037Z,-2.84
2023-02-27T07:07:33.908Z,-2.78
2023-02-27T07:08:25.039Z,-2.70
2023-02-27T07:09:23.110Z,-2.67
2023-02-27T07:10:22.842Z,-2.61
2023-02-27T07:11:22.881Z,-2.55
2023-02-27T07:12:21.980Z,-2.50
2023-02-27T07:13:21.845Z,-2.45
2023-02-27T07:14:21.837Z,-2.39
2023-02-27T07:15:21.847Z,-2.34
2023-02-27T07:16:21.798Z,-2.30
2023-02-27T07:17:21.787Z,-2.26
2023-02-27T07:18:21.787Z,-2.21
2023-02-27T07:19:21.766Z,-2.21
2023-02-27T07:20:21.769Z,-2.16
2023-02-27T07:21:21.745Z,-2.15
2023-02-27T07:22:21.727Z,-2.16
2023-02-27T07:23:21.723Z,-2.13
2023-02-27T07:24:21.704Z,-2.12
2023-02-27T07:25:21.714Z,-2.12
2023-02-27T07:26:21.678Z,-2.12
2023-02-27T07:27:21.672Z,-2.12
2023-02-27T07:28:21.703Z,-2.10
2023-02-27T07:29:21.649Z,-2.09
2023-02-27T07:30:21.659Z,-2.12
2023-02-27T07:31:21.681Z,-2.10
2023-02-27T07:32:21.662Z,-2.12
2023-02-27T07:33:21.593Z,-2.09
2023-02-27T07:34:21.583Z,-2.09
2023-02-27T07:35:21.584Z,-2.06
2023-02-27T07:36:21.552Z,-2.00
2023-02-27T07:37:21.573Z,-1.94
2023-02-27T07:38:21.529Z,-1.76
2023-02-27T07:39:21.532Z,-1.59
2023-02-27T07:40:21.534Z,-1.54
2023-02-27T07:42:22.484Z,-1.37
2023-02-27T07:43:21.475Z,-1.31
2023-02-27T07:44:21.465Z,-1.25
2023-02-27T07:45:21.464Z,-1.13
2023-02-27T07:46:21.498Z,-1.04
2023-02-27T07:47:21.438Z,-1.04
2023-02-27T07:48:21.410Z,-0.99
2023-02-27T07:49:21.416Z,-0.99
2023-02-27T07:50:21.411Z,-0.98
2023-02-27T07:51:21.408Z,-0.95
2023-02-27T07:52:21.374Z,-0.92
2023-02-27T07:53:21.361Z,-0.89
2023-02-27T07:54:21.345Z,-0.86
2023-02-27T07:55:21.353Z,-0.85
2023-02-27T07:56:21.311Z,-0.79
2023-02-27T07:57:21.304Z,-0.73
2023-02-27T07:58:21.296Z,-0.72
2023-02-27T07:59:21.303Z,-0.58
2023-02-27T08:00:21.301Z,-0.57
2023-02-27T08:01:21.289Z,-0.52
2023-02-27T08:02:21.316Z,-0.49
2023-02-27T08:03:21.235Z,-0.43
2023-02-27T08:04:21.247Z,-0.39
2023-02-27T08:05:21.220Z,-0.33
2023-02-27T08:06:21.203Z,-0.31
2023-02-27T08:07:21.199Z,-0.22
2023-02-27T08:08:21.170Z,-0.21
2023-02-27T08:09:21.160Z,-0.22
2023-02-27T08:10:21.163Z,-0.22
2023-02-27T08:11:21.143Z,-0.16
2023-02-27T08:12:21.132Z,-0.07
2023-02-27T08:13:42.433Z,-0.08
2023-02-27T08:14:22.105Z,-0.03
2023-02-27T08:15:21.098Z,0.07
2023-02-27T08:16:21.092Z,0.14
2023-02-27T08:17:21.094Z,0.14
2023-02-27T08:18:21.055Z,0.13
2023-02-27T08:19:21.064Z,0.20
2023-02-27T08:20:21.038Z,0.17
2023-02-27T08:21:21.023Z,0.24
2023-02-27T08:22:21.007Z,0.18
2023-02-27T08:23:20.988Z,0.20
2023-02-27T08:24:20.984Z,0.21
2023-02-27T08:25:20.984Z,0.21
2023-02-27T08:26:20.953Z,0.26
2023-02-27T08:27:20.932Z,0.24
2023-02-27T08:28:20.924Z,0.20
2023-02-27T08:29:20.916Z,0.17
2023-02-27T08:30:20.913Z,0.15
2023-02-27T08:31:20.917Z,0.08
2023-02-27T08:32:21.022Z,0.13
2023-02-27T08:33:20.870Z,0.15
2023-02-27T08:34:20.849Z,0.18
2023-02-27T08:35:20.856Z,0.23
2023-02-27T08:36:20.829Z,0.28
2023-02-27T08:37:20.821Z,0.35
2023-02-27T08:38:20.800Z,0.33
2023-02-27T08:39:20.780Z,0.42
2023-02-27T08:40:20.795Z,0.49
2023-02-27T08:41:20.755Z,0.49
2023-02-27T08:42:20.746Z,0.51
2023-02-27T08:43:20.741Z,0.50
2023-02-27T08:44:20.716Z,0.62
2023-02-27T08:45:20.726Z,0.65
2023-02-27T08:46:20.698Z,0.66
2023-02-27T08:47:20.693Z,0.70
2023-02-27T08:48:20.664Z,0.73
2023-02-27T08:49:21.741Z,0.72
2023-02-27T08:50:20.656Z,0.72
2023-02-27T08:51:20.635Z,0.73
2023-02-27T08:52:20.616Z,0.75
2023-02-27T08:53:20.615Z,0.83
2023-02-27T08:54:20.601Z,0.88
2023-02-27T08:55:20.596Z,0.93
2023-02-27T08:56:20.582Z,0.93
2023-02-27T08:57:20.562Z,1.02
2023-02-27T08:58:20.592Z,1.02
2023-02-27T08:59:20.542Z,1.08
2023-02-27T09:00:20.577Z,1.16
2023-02-27T09:01:20.569Z,1.30
2023-02-27T09:02:20.513Z,1.27
2023-02-27T09:03:20.484Z,1.44
2023-02-27T09:04:20.464Z,1.54
2023-02-27T09:05:20.483Z,1.54
2023-02-27T09:06:20.439Z,1.58
2023-02-27T09:07:20.430Z,1.69
2023-02-27T09:08:20.424Z,1.70
2023-02-27T09:09:20.408Z,1.84
2023-02-27T09:10:20.381Z,1.93
2023-02-27T09:11:20.404Z,2.00
2023-02-27T09:12:20.379Z,2.00
2023-02-27T09:13:20.351Z,2.05
2023-02-27T09:14:20.341Z,2.07
2023-02-27T09:15:20.321Z,2.10
2023-02-27T09:16:22.025Z,2.17
2023-02-27T09:17:20.299Z,2.16
2023-02-27T09:18:20.307Z,2.28
2023-02-27T09:19:20.287Z,2.31
2023-02-27T09:20:20.259Z,2.35
2023-02-27T09:21:20.260Z,2.39
2023-02-27T09:22:20.237Z,2.35
2023-02-27T09:23:20.219Z,2.34
2023-02-27T09:24:20.984Z,2.38
2023-02-27T09:25:20.197Z,2.35
2023-02-27T09:26:21.683Z,2.39
2023-02-27T09:27:20.168Z,2.39
2023-02-27T09:28:20.158Z,2.54
2023-02-27T09:29:20.146Z,2.74
2023-02-27T09:30:20.134Z,2.95
2023-02-27T09:31:20.166Z,3.17
2023-02-27T09:32:20.214Z,3.35
2023-02-27T09:33:20.086Z,3.35
2023-02-27T09:34:20.085Z,3.35
2023-02-27T09:35:20.066Z,3.43
2023-02-27T09:36:20.076Z,3.60
2023-02-27T09:37:20.034Z,3.73
2023-02-27T09:38:20.028Z,3.43
2023-02-27T09:39:20.013Z,3.29
2023-02-27T09:40:20.008Z,3.36
2023-02-27T09:41:20.004Z,3.57
2023-02-27T09:42:19.991Z,3.80
2023-02-27T09:43:20.018Z,3.98
2023-02-27T09:44:27.356Z,4.16
2023-02-27T09:45:20.936Z,4.32
2023-02-27T09:46:19.987Z,4.45
2023-02-27T09:47:19.927Z,4.50
2023-02-27T09:48:19.906Z,4.59
2023-02-27T09:49:19.885Z,4.73
2023-02-27T09:50:19.874Z,4.82
2023-02-27T09:51:19.878Z,4.88
2023-02-27T09:52:19.854Z,4.88
2023-02-27T09:53:19.831Z,5.00
2023-02-27T09:54:19.824Z,4.99
2023-02-27T09:55:19.803Z,4.92
2023-02-27T09:56:19.849Z,4.96
2023-02-27T09:57:19.786Z,4.97
2023-02-27T09:58:19.783Z,4.99
2023-02-27T09:59:19.759Z,5.10
2023-02-27T10:00:19.742Z,5.21
2023-02-27T10:01:19.746Z,5.38
2023-02-27T10:02:19.866Z,5.54
2023-02-27T10:03:19.747Z,5.22
2023-02-27T10:04:19.688Z,5.24
2023-02-27T10:05:19.690Z,5.36
2023-02-27T10:06:19.680Z,5.46
2023-02-27T10:07:19.650Z,5.61
2023-02-27T10:08:19.641Z,5.72
2023-02-27T10:09:19.619Z,5.79
2023-02-27T10:10:19.618Z,5.78
2023-02-27T10:11:19.622Z,5.91
2023-02-27T10:12:19.641Z,6.01
2023-02-27T10:13:19.584Z,6.00
2023-02-27T10:14:19.568Z,6.03
2023-02-27T10:15:19.554Z,5.97
2023-02-27T10:16:19.594Z,5.93
2023-02-27T10:17:19.532Z,5.89
2023-02-27T10:18:26.924Z,5.85
2023-02-27T10:19:20.493Z,5.68
2023-02-27T10:20:19.505Z,5.78
2023-02-27T10:21:19.507Z,5.85
2023-02-27T10:22:19.471Z,6.04
2023-02-27T10:23:19.453Z,6.21
2023-02-27T10:24:19.442Z,6.14
2023-02-27T10:25:30.897Z,6.14
2023-02-27T10:26:20.453Z,6.14
2023-02-27T10:27:19.414Z,6.27
2023-02-27T10:28:19.404Z,6.28
2023-02-27T10:29:19.378Z,6.38
2023-02-27T10:30:28.294Z,6.44
2023-02-27T10:31:21.211Z,6.44
2023-02-27T10:32:19.420Z,6.52
2023-02-27T10:33:19.320Z,6.52
2023-02-27T10:34:19.321Z,6.58
2023-02-27T10:35:19.301Z,6.74
2023-02-27T10:36:32.656Z,6.77
2023-02-27T10:37:20.271Z,6.62
2023-02-27T10:38:19.257Z,6.37
2023-02-27T10:39:19.244Z,6.43
2023-02-27T10:40:19.306Z,6.34
2023-02-27T10:41:19.232Z,6.22
2023-02-27T10:42:19.250Z,6.19
2023-02-27T10:43:19.414Z,6.51
2023-02-27T10:44:19.177Z,6.66
2023-02-27T10:45:19.174Z,6.85
2023-02-27T10:46:19.262Z,7.03
2023-02-27T10:47:19.146Z,7.09
2023-02-27T10:48:19.135Z,7.12
2023-02-27T10:49:19.456Z,6.98
2023-02-27T10:50:19.107Z,7.17
2023-02-27T10:51:19.168Z,7.32
2023-02-27T10:52:19.078Z,7.32
2023-02-27T10:53:19.073Z,7.52
2023-02-27T10:54:19.091Z,7.68
2023-02-27T10:55:19.057Z,7.52
2023-02-27T10:56:19.034Z,7.21
2023-02-27T10:57:18.993Z,6.88
2023-02-27T10:58:19.009Z,6.70
2023-02-27T10:59:18.992Z,6.51
2023-02-27T11:00:18.979Z,6.69
2023-02-27T11:01:18.991Z,6.88
2023-02-27T11:02:18.942Z,7.12
2023-02-27T11:03:18.924Z,7.37
2023-02-27T11:04:18.982Z,7.39
2023-02-27T11:05:18.902Z,7.55
2023-02-27T11:06:18.918Z,7.72
2023-02-27T11:07:18.873Z,7.50
2023-02-27T11:08:18.864Z,6.99
2023-02-27T11:09:18.851Z,6.84
2023-02-27T11:10:18.874Z,6.71
2023-02-27T11:11:18.823Z,6.54
2023-02-27T11:12:18.820Z,6.55
2023-02-27T11:13:18.785Z,6.66
2023-02-27T11:14:18.780Z,6.51
2023-02-27T11:15:18.779Z,6.48
2023-02-27T11:16:18.811Z,6.46
2023-02-27T11:17:18.731Z,6.71
2023-02-27T11:18:18.775Z,7.09
2023-02-27T11:19:18.713Z,7.20
2023-02-27T11:20:18.699Z,7.21
2023-02-27T11:21:18.720Z,6.99
2023-02-27T11:22:18.715Z,6.77
2023-02-27T11:23:18.661Z,6.59
2023-02-27T11:24:18.642Z,6.08
2023-02-27T11:25:18.637Z,5.76
2023-02-27T11:26:18.642Z,5.68
2023-02-27T11:27:18.613Z,5.53
2023-02-27T11:28:18.611Z,5.17
2023-02-27T11:29:18.582Z,4.86
2023-02-27T11:30:18.665Z,4.84
2023-02-27T11:31:18.624Z,4.92
2023-02-27T11:32:18.593Z,5.06
2023-02-27T11:33:18.546Z,5.15
2023-02-27T11:34:18.523Z,5.38
2023-02-27T11:35:18.524Z,5.33
2023-02-27T11:36:18.574Z,5.18
2023-02-27T11:37:18.501Z,5.09
2023-02-27T11:38:18.485Z,5.39
2023-02-27T11:39:18.455Z,5.74
2023-02-27T11:40:18.459Z,6.06
2023-02-27T11:41:18.453Z,6.58
2023-02-27T11:42:18.431Z,6.67
2023-02-27T11:43:18.401Z,6.84
2023-02-27T11:44:18.700Z,6.94
2023-02-27T11:46:04.640Z,6.95
2023-02-27T11:46:47.342Z,6.88
2023-02-27T11:47:19.425Z,6.88
2023-02-27T11:48:18.345Z,6.79
2023-02-27T11:49:18.336Z,6.27
2023-02-27T11:50:18.322Z,6.18
2023-02-27T11:51:18.331Z,6.11
2023-02-27T11:52:18.296Z,5.90
2023-02-27T11:53:18.285Z,5.72
2023-02-27T11:54:18.265Z,5.68
2023-02-27T11:55:18.274Z,5.82
2023-02-27T11:56:18.241Z,6.19
2023-02-27T11:57:18.233Z,6.66
2023-02-27T11:58:18.238Z,6.76
2023-02-27T11:59:18.200Z,6.79
2023-02-27T12:00:18.187Z,6.81
2023-02-27T12:01:18.180Z,6.99
2023-02-27T12:02:18.176Z,6.84
2023-02-27T12:03:18.150Z,6.62
2023-02-27T12:04:18.174Z,6.55
2023-02-27T12:05:18.159Z,6.46
2023-02-27T12:06:18.109Z,6.31
2023-02-27T12:07:18.109Z,6.18
2023-02-27T12:08:18.089Z,5.99
2023-02-27T12:09:18.099Z,5.85
2023-02-27T12:10:18.062Z,5.65
2023-02-27T12:11:18.040Z,5.61
2023-02-27T12:12:18.048Z,5.64
2023-02-27T12:13:18.016Z,5.78
2023-02-27T12:14:18.041Z,6.04
2023-02-27T12:15:18.016Z,6.21
2023-02-27T12:16:18.050Z,6.31
2023-02-27T12:17:17.978Z,6.40
2023-02-27T12:18:17.960Z,6.30
2023-02-27T12:19:17.939Z,6.15
2023-02-27T12:20:17.940Z,6.03
2023-02-27T12:21:17.917Z,6.22
2023-02-27T12:22:17.916Z,6.70
2023-02-27T12:23:17.897Z,6.77
2023-02-27T12:24:17.881Z,6.59
2023-02-27T12:25:17.870Z,6.77
2023-02-27T12:26:17.847Z,6.55
2023-02-27T12:27:17.849Z,6.67
2023-02-27T12:28:17.828Z,6.73
2023-02-27T12:29:17.807Z,6.77
2023-02-27T12:30:17.798Z,6.73
2023-02-27T12:31:17.833Z,6.51
2023-02-27T12:32:17.841Z,6.17
2023-02-27T12:33:17.754Z,5.99
2023-02-27T12:34:17.743Z,5.86
2023-02-27T12:35:17.746Z,5.91
2023-02-27T12:36:17.721Z,5.96
2023-02-27T12:37:17.725Z,5.93
2023-02-27T12:38:17.712Z,5.93
2023-02-27T12:39:17.688Z,5.86
2023-02-27T12:40:17.674Z,5.91
2023-02-27T12:41:17.663Z,5.90
2023-02-27T12:42:17.662Z,5.85
2023-02-27T12:43:17.623Z,5.85
2023-02-27T12:44:17.621Z,5.82
2023-02-27T12:45:17.623Z,5.86
2023-02-27T12:46:17.604Z,5.85
2023-02-27T12:47:17.647Z,5.78
2023-02-27T12:48:17.567Z,5.76
2023-02-27T12:49:17.546Z,5.71
2023-02-27T12:50:17.540Z,5.54
2023-02-27T12:51:17.516Z,5.49
2023-02-27T12:52:17.527Z,5.51
2023-02-27T12:53:17.496Z,5.60
2023-02-27T12:54:17.481Z,5.68
2023-02-27T12:55:17.468Z,5.79
2023-02-27T12:56:17.461Z,5.81
2023-02-27T12:57:17.444Z,5.97
2023-02-27T12:58:17.423Z,5.97
2023-02-27T12:59:17.404Z,5.90
2023-02-27T13:00:17.405Z,5.91
2023-02-27T13:01:17.511Z,5.79
2023-02-27T13:02:17.414Z,5.78
2023-02-27T13:03:17.356Z,5.83